sensor_id;sensor_type;location;lat;lon;timestamp;P1;durP1;ratioP1;P2;durP2;ratioP2
40993;SDS011;26722;43.212;27.932;2023-04-01T00:00:16;19.33;;;5.95;;
40993;SDS011;26722;43.212;27.932;2023-04-01T00:02:42;12.23;;;5.85;;
40993;SDS011;26722;43.212;27.932;2023-04-01T00:05:08;12.80;;;5.25;;
40993;SDS011;26722;43.212;27.932;2023-04-01T00:07:35;12.10;;;5.18;;
40993;SDS011;26722;43.212;27.932;2023-04-01T00:10:02;14.73;;;5.53;;
40993;SDS011;26722;43.212;27.932;2023-04-01T00:12:29;12.32;;;5.68;;
40993;SDS011;26722;43.212;27.932;2023-04-01T00:14:55;13.00;;;5.78;;
40993;SDS011;26722;43.212;27.932;2023-04-01T00:17:20;13.88;;;5.50;;
40993;SDS011;26722;43.212;27.932;2023-04-01T00:19:46;10.30;;;5.50;;
40993;SDS011;26722;43.212;27.932;2023-04-01T00:22:13;17.73;;;5.78;;
40993;SDS011;26722;43.212;27.932;2023-04-01T00:24:38;14.43;;;6.10;;
40993;SDS011;26722;43.212;27.932;2023-04-01T00:27:04;17.48;;;5.63;;
40993;SDS011;26722;43.212;27.932;2023-04-01T00:29:30;10.95;;;4.90;;
40993;SDS011;26722;43.212;27.932;2023-04-01T00:31:57;14.68;;;6.00;;
40993;SDS011;26722;43.212;27.932;2023-04-01T00:34:23;12.57;;;5.25;;
40993;SDS011;26722;43.212;27.932;2023-04-01T00:36:49;10.73;;;5.20;;
40993;SDS011;26722;43.212;27.932;2023-04-01T00:39:15;15.93;;;4.95;;
40993;SDS011;26722;43.212;27.932;2023-04-01T00:41:41;11.15;;;4.82;;
40993;SDS011;26722;43.212;27.932;2023-04-01T00:44:20;12.07;;;5.05;;
40993;SDS011;26722;43.212;27.932;2023-04-01T00:46:47;11.73;;;4.72;;
40993;SDS011;26722;43.212;27.932;2023-04-01T00:49:13;14.10;;;4.63;;
40993;SDS011;26722;43.212;27.932;2023-04-01T00:51:39;17.48;;;4.55;;
40993;SDS011;26722;43.212;27.932;2023-04-01T00:54:07;13.77;;;4.40;;
40993;SDS011;26722;43.212;27.932;2023-04-01T00:56:39;13.02;;;4.63;;
40993;SDS011;26722;43.212;27.932;2023-04-01T00:59:11;12.10;;;4.85;;
40993;SDS011;26722;43.212;27.932;2023-04-01T01:01:41;11.80;;;4.45;;
40993;SDS011;26722;43.212;27.932;2023-04-01T01:04:07;16.35;;;6.90;;
40993;SDS011;26722;43.212;27.932;2023-04-01T01:09:57;37.13;;;19.70;;
40993;SDS011;26722;43.212;27.932;2023-04-01T01:15:25;41.85;;;22.02;;
40993;SDS011;26722;43.212;27.932;2023-04-01T01:23:16;39.80;;;23.00;;
40993;SDS011;26722;43.212;27.932;2023-04-01T01:37:26;39.97;;;22.63;;
40993;SDS011;26722;43.212;27.932;2023-04-01T01:39:56;40.38;;;21.67;;
40993;SDS011;26722;43.212;27.932;2023-04-01T01:42:26;39.63;;;20.20;;
40993;SDS011;26722;43.212;27.932;2023-04-01T01:44:55;42.83;;;17.27;;
40993;SDS011;26722;43.212;27.932;2023-04-01T01:47:24;40.63;;;20.60;;
40993;SDS011;26722;43.212;27.932;2023-04-01T01:49:51;39.55;;;18.88;;
40993;SDS011;26722;43.212;27.932;2023-04-01T01:52:21;36.97;;;17.42;;
40993;SDS011;26722;43.212;27.932;2023-04-01T01:54:51;36.35;;;18.88;;
40993;SDS011;26722;43.212;27.932;2023-04-01T01:57:19;37.05;;;18.42;;
40993;SDS011;26722;43.212;27.932;2023-04-01T01:59:50;32.28;;;18.25;;
40993;SDS011;26722;43.212;27.932;2023-04-01T02:02:20;28.48;;;15.20;;
40993;SDS011;26722;43.212;27.932;2023-04-01T02:04:47;31.63;;;18.52;;
40993;SDS011;26722;43.212;27.932;2023-04-01T02:07:20;30.70;;;18.33;;
40993;SDS011;26722;43.212;27.932;2023-04-01T02:12:17;31.55;;;17.38;;
40993;SDS011;26722;43.212;27.932;2023-04-01T02:17:16;42.45;;;18.98;;
40993;SDS011;26722;43.212;27.932;2023-04-01T02:19:51;34.83;;;18.95;;
40993;SDS011;26722;43.212;27.932;2023-04-01T02:22:25;38.72;;;18.45;;
40993;SDS011;26722;43.212;27.932;2023-04-01T02:24:54;37.08;;;16.77;;
40993;SDS011;26722;43.212;27.932;2023-04-01T02:27:23;26.60;;;12.45;;
40993;SDS011;26722;43.212;27.932;2023-04-01T02:29:50;26.00;;;11.27;;
40993;SDS011;26722;43.212;27.932;2023-04-01T02:32:16;15.77;;;7.90;;
40993;SDS011;26722;43.212;27.932;2023-04-01T02:34:43;20.98;;;8.32;;
40993;SDS011;26722;43.212;27.932;2023-04-01T02:37:10;16.10;;;8.20;;
40993;SDS011;26722;43.212;27.932;2023-04-01T02:39:36;14.63;;;7.88;;
40993;SDS011;26722;43.212;27.932;2023-04-01T02:42:02;19.27;;;9.93;;
40993;SDS011;26722;43.212;27.932;2023-04-01T02:44:28;21.02;;;11.55;;
40993;SDS011;26722;43.212;27.932;2023-04-01T02:46:53;22.92;;;12.23;;
40993;SDS011;26722;43.212;27.932;2023-04-01T02:49:19;29.20;;;11.98;;
40993;SDS011;26722;43.212;27.932;2023-04-01T02:51:44;26.70;;;12.50;;
40993;SDS011;26722;43.212;27.932;2023-04-01T02:54:10;23.35;;;11.57;;
40993;SDS011;26722;43.212;27.932;2023-04-01T02:56:35;22.42;;;11.27;;
40993;SDS011;26722;43.212;27.932;2023-04-01T02:59:01;19.50;;;8.88;;
40993;SDS011;26722;43.212;27.932;2023-04-01T03:01:27;21.85;;;8.80;;
40993;SDS011;26722;43.212;27.932;2023-04-01T03:03:53;16.73;;;7.95;;
40993;SDS011;26722;43.212;27.932;2023-04-01T03:06:18;20.05;;;7.43;;
40993;SDS011;26722;43.212;27.932;2023-04-01T03:08:44;18.83;;;8.57;;
40993;SDS011;26722;43.212;27.932;2023-04-01T03:11:10;19.30;;;8.70;;
40993;SDS011;26722;43.212;27.932;2023-04-01T03:13:36;12.30;;;7.00;;
40993;SDS011;26722;43.212;27.932;2023-04-01T03:16:02;15.57;;;7.57;;
40993;SDS011;26722;43.212;27.932;2023-04-01T03:18:28;16.02;;;7.40;;
40993;SDS011;26722;43.212;27.932;2023-04-01T03:20:54;18.00;;;7.22;;
40993;SDS011;26722;43.212;27.932;2023-04-01T03:23:19;18.63;;;7.25;;
40993;SDS011;26722;43.212;27.932;2023-04-01T03:25:46;13.63;;;6.80;;
40993;SDS011;26722;43.212;27.932;2023-04-01T03:28:12;18.85;;;7.15;;
40993;SDS011;26722;43.212;27.932;2023-04-01T03:30:38;20.33;;;7.40;;
40993;SDS011;26722;43.212;27.932;2023-04-01T03:33:04;15.57;;;6.28;;
40993;SDS011;26722;43.212;27.932;2023-04-01T03:35:30;19.08;;;7.00;;
40993;SDS011;26722;43.212;27.932;2023-04-01T03:37:55;16.95;;;7.30;;
40993;SDS011;26722;43.212;27.932;2023-04-01T03:40:21;24.70;;;9.00;;
40993;SDS011;26722;43.212;27.932;2023-04-01T03:42:47;20.02;;;7.88;;
40993;SDS011;26722;43.212;27.932;2023-04-01T03:45:12;17.45;;;8.38;;
40993;SDS011;26722;43.212;27.932;2023-04-01T03:47:38;23.38;;;9.40;;
40993;SDS011;26722;43.212;27.932;2023-04-01T03:50:05;23.83;;;11.20;;
40993;SDS011;26722;43.212;27.932;2023-04-01T03:52:31;26.27;;;11.68;;
40993;SDS011;26722;43.212;27.932;2023-04-01T03:54:57;31.75;;;14.93;;
40993;SDS011;26722;43.212;27.932;2023-04-01T03:57:23;34.88;;;18.00;;
40993;SDS011;26722;43.212;27.932;2023-04-01T03:59:48;42.40;;;19.27;;
40993;SDS011;26722;43.212;27.932;2023-04-01T04:02:14;43.25;;;20.77;;
40993;SDS011;26722;43.212;27.932;2023-04-01T04:04:39;40.47;;;20.55;;
40993;SDS011;26722;43.212;27.932;2023-04-01T04:07:06;42.78;;;19.92;;
40993;SDS011;26722;43.212;27.932;2023-04-01T04:09:32;50.55;;;22.50;;
40993;SDS011;26722;43.212;27.932;2023-04-01T04:11:58;38.65;;;22.02;;
40993;SDS011;26722;43.212;27.932;2023-04-01T04:14:24;52.03;;;21.52;;
40993;SDS011;26722;43.212;27.932;2023-04-01T04:16:50;36.00;;;20.45;;
40993;SDS011;26722;43.212;27.932;2023-04-01T04:19:15;40.38;;;19.83;;
40993;SDS011;26722;43.212;27.932;2023-04-01T04:21:41;39.03;;;19.85;;
40993;SDS011;26722;43.212;27.932;2023-04-01T04:24:07;42.47;;;22.45;;
40993;SDS011;26722;43.212;27.932;2023-04-01T04:26:33;43.92;;;21.60;;
40993;SDS011;26722;43.212;27.932;2023-04-01T04:28:59;39.83;;;19.63;;
40993;SDS011;26722;43.212;27.932;2023-04-01T04:31:26;36.88;;;19.13;;
40993;SDS011;26722;43.212;27.932;2023-04-01T04:33:52;34.25;;;17.73;;
40993;SDS011;26722;43.212;27.932;2023-04-01T04:36:18;33.00;;;17.50;;
40993;SDS011;26722;43.212;27.932;2023-04-01T04:38:45;31.90;;;16.55;;
40993;SDS011;26722;43.212;27.932;2023-04-01T04:41:11;30.02;;;15.80;;
40993;SDS011;26722;43.212;27.932;2023-04-01T04:43:38;23.20;;;10.27;;
40993;SDS011;26722;43.212;27.932;2023-04-01T04:46:06;24.65;;;12.20;;
40993;SDS011;26722;43.212;27.932;2023-04-01T04:48:35;21.38;;;9.40;;
40993;SDS011;26722;43.212;27.932;2023-04-01T04:51:00;22.98;;;8.73;;
40993;SDS011;26722;43.212;27.932;2023-04-01T04:53:26;22.48;;;10.05;;
40993;SDS011;26722;43.212;27.932;2023-04-01T04:55:52;18.77;;;7.05;;
40993;SDS011;26722;43.212;27.932;2023-04-01T04:58:18;18.02;;;7.45;;
40993;SDS011;26722;43.212;27.932;2023-04-01T05:00:44;15.73;;;6.30;;
40993;SDS011;26722;43.212;27.932;2023-04-01T05:03:11;17.90;;;8.00;;
40993;SDS011;26722;43.212;27.932;2023-04-01T05:05:37;19.27;;;7.03;;
40993;SDS011;26722;43.212;27.932;2023-04-01T05:08:03;11.32;;;5.68;;
40993;SDS011;26722;43.212;27.932;2023-04-01T05:10:29;12.35;;;6.30;;
40993;SDS011;26722;43.212;27.932;2023-04-01T05:12:55;29.80;;;11.55;;
40993;SDS011;26722;43.212;27.932;2023-04-01T05:15:21;45.83;;;18.98;;
40993;SDS011;26722;43.212;27.932;2023-04-01T05:17:47;48.55;;;22.42;;
40993;SDS011;26722;43.212;27.932;2023-04-01T05:20:12;59.55;;;25.15;;
40993;SDS011;26722;43.212;27.932;2023-04-01T05:22:39;57.15;;;24.85;;
40993;SDS011;26722;43.212;27.932;2023-04-01T05:25:05;54.05;;;23.23;;
40993;SDS011;26722;43.212;27.932;2023-04-01T05:27:31;60.22;;;25.70;;
40993;SDS011;26722;43.212;27.932;2023-04-01T05:29:57;24.52;;;12.00;;
40993;SDS011;26722;43.212;27.932;2023-04-01T05:32:23;41.88;;;16.73;;
40993;SDS011;26722;43.212;27.932;2023-04-01T05:34:52;27.73;;;12.43;;
40993;SDS011;26722;43.212;27.932;2023-04-01T05:37:19;18.92;;;7.88;;
40993;SDS011;26722;43.212;27.932;2023-04-01T05:39:45;30.75;;;11.52;;
40993;SDS011;26722;43.212;27.932;2023-04-01T05:42:10;37.33;;;13.88;;
40993;SDS011;26722;43.212;27.932;2023-04-01T05:44:36;23.88;;;9.98;;
40993;SDS011;26722;43.212;27.932;2023-04-01T05:47:02;31.55;;;11.48;;
40993;SDS011;26722;43.212;27.932;2023-04-01T05:49:28;25.42;;;8.57;;
40993;SDS011;26722;43.212;27.932;2023-04-01T05:51:54;23.00;;;8.25;;
40993;SDS011;26722;43.212;27.932;2023-04-01T05:54:20;17.10;;;8.05;;
40993;SDS011;26722;43.212;27.932;2023-04-01T05:56:46;27.75;;;7.60;;
40993;SDS011;26722;43.212;27.932;2023-04-01T05:59:12;22.23;;;6.65;;
40993;SDS011;26722;43.212;27.932;2023-04-01T06:01:38;23.08;;;7.47;;
40993;SDS011;26722;43.212;27.932;2023-04-01T06:04:03;16.38;;;6.25;;
40993;SDS011;26722;43.212;27.932;2023-04-01T06:06:30;20.50;;;7.10;;
40993;SDS011;26722;43.212;27.932;2023-04-01T06:08:58;19.23;;;5.53;;
40993;SDS011;26722;43.212;27.932;2023-04-01T06:25:51;13.52;;;5.53;;
40993;SDS011;26722;43.212;27.932;2023-04-01T06:40:12;14.27;;;4.90;;
40993;SDS011;26722;43.212;27.932;2023-04-01T06:45:31;13.02;;;5.53;;
40993;SDS011;26722;43.212;27.932;2023-04-01T06:50:53;16.30;;;5.80;;
40993;SDS011;26722;43.212;27.932;2023-04-01T06:56:19;10.10;;;4.93;;
40993;SDS011;26722;43.212;27.932;2023-04-01T06:58:55;14.02;;;4.95;;
40993;SDS011;26722;43.212;27.932;2023-04-01T07:01:33;9.85;;;5.05;;
40993;SDS011;26722;43.212;27.932;2023-04-01T07:04:05;7.97;;;5.10;;
40993;SDS011;26722;43.212;27.932;2023-04-01T07:06:38;16.80;;;5.28;;
40993;SDS011;26722;43.212;27.932;2023-04-01T07:09:18;13.70;;;4.95;;
40993;SDS011;26722;43.212;27.932;2023-04-01T07:11:46;12.25;;;5.55;;
40993;SDS011;26722;43.212;27.932;2023-04-01T07:14:20;13.88;;;5.95;;
40993;SDS011;26722;43.212;27.932;2023-04-01T07:16:51;11.75;;;6.15;;
40993;SDS011;26722;43.212;27.932;2023-04-01T07:19:32;15.38;;;5.95;;
40993;SDS011;26722;43.212;27.932;2023-04-01T07:22:04;12.38;;;5.03;;
40993;SDS011;26722;43.212;27.932;2023-04-01T07:24:40;15.65;;;4.97;;
40993;SDS011;26722;43.212;27.932;2023-04-01T07:27:09;16.92;;;4.97;;
40993;SDS011;26722;43.212;27.932;2023-04-01T07:29:36;15.27;;;4.78;;
40993;SDS011;26722;43.212;27.932;2023-04-01T07:34:57;15.43;;;5.45;;
40993;SDS011;26722;43.212;27.932;2023-04-01T08:10:13;15.68;;;5.07;;
40993;SDS011;26722;43.212;27.932;2023-04-01T08:18:20;13.75;;;4.38;;
40993;SDS011;26722;43.212;27.932;2023-04-01T08:20:59;13.50;;;4.63;;
40993;SDS011;26722;43.212;27.932;2023-04-01T08:23:44;12.23;;;4.22;;
40993;SDS011;26722;43.212;27.932;2023-04-01T08:26:17;15.38;;;4.28;;
40993;SDS011;26722;43.212;27.932;2023-04-01T08:28:59;15.98;;;4.43;;
40993;SDS011;26722;43.212;27.932;2023-04-01T08:31:30;16.40;;;4.72;;
40993;SDS011;26722;43.212;27.932;2023-04-01T08:33:57;17.70;;;4.93;;
40993;SDS011;26722;43.212;27.932;2023-04-01T08:36:29;13.80;;;5.10;;
40993;SDS011;26722;43.212;27.932;2023-04-01T08:39:02;9.07;;;4.13;;
40993;SDS011;26722;43.212;27.932;2023-04-01T08:50:17;17.20;;;4.22;;
40993;SDS011;26722;43.212;27.932;2023-04-01T08:56:26;12.63;;;4.25;;
40993;SDS011;26722;43.212;27.932;2023-04-01T09:02:04;14.13;;;5.05;;
40993;SDS011;26722;43.212;27.932;2023-04-01T09:12:28;14.35;;;4.18;;
40993;SDS011;26722;43.212;27.932;2023-04-01T09:28:35;10.80;;;4.65;;
40993;SDS011;26722;43.212;27.932;2023-04-01T09:34:39;13.15;;;4.32;;
40993;SDS011;26722;43.212;27.932;2023-04-01T09:48:57;18.10;;;5.30;;
40993;SDS011;26722;43.212;27.932;2023-04-01T10:00:24;17.90;;;5.55;;
40993;SDS011;26722;43.212;27.932;2023-04-01T10:40:02;19.58;;;6.18;;
40993;SDS011;26722;43.212;27.932;2023-04-01T10:56:50;25.98;;;7.05;;
40993;SDS011;26722;43.212;27.932;2023-04-01T10:59:28;19.02;;;6.40;;
40993;SDS011;26722;43.212;27.932;2023-04-01T11:10:25;20.23;;;6.00;;
40993;SDS011;26722;43.212;27.932;2023-04-01T11:24:05;20.60;;;5.78;;
40993;SDS011;26722;43.212;27.932;2023-04-01T11:37:33;16.58;;;5.97;;
40993;SDS011;26722;43.212;27.932;2023-04-01T11:42:57;23.70;;;5.78;;
40993;SDS011;26722;43.212;27.932;2023-04-01T11:45:35;21.00;;;6.22;;
40993;SDS011;26722;43.212;27.932;2023-04-01T11:59:12;19.75;;;5.10;;
40993;SDS011;26722;43.212;27.932;2023-04-01T12:07:24;19.92;;;5.15;;
40993;SDS011;26722;43.212;27.932;2023-04-01T12:10:05;19.85;;;4.88;;
40993;SDS011;26722;43.212;27.932;2023-04-01T12:18:33;19.90;;;5.22;;
40993;SDS011;26722;43.212;27.932;2023-04-01T12:24:08;26.83;;;6.03;;
40993;SDS011;26722;43.212;27.932;2023-04-01T12:37:39;22.40;;;6.15;;
40993;SDS011;26722;43.212;27.932;2023-04-01T12:51:47;17.70;;;6.40;;
40993;SDS011;26722;43.212;27.932;2023-04-01T12:54:24;20.23;;;6.57;;
40993;SDS011;26722;43.212;27.932;2023-04-01T13:08:52;25.88;;;7.32;;
40993;SDS011;26722;43.212;27.932;2023-04-01T13:19:58;25.20;;;7.00;;
40993;SDS011;26722;43.212;27.932;2023-04-01T13:22:51;23.50;;;6.68;;
40993;SDS011;26722;43.212;27.932;2023-04-01T13:25:54;24.55;;;6.63;;
40993;SDS011;26722;43.212;27.932;2023-04-01T13:28:28;22.52;;;7.22;;
40993;SDS011;26722;43.212;27.932;2023-04-01T13:39:22;22.35;;;7.63;;
40993;SDS011;26722;43.212;27.932;2023-04-01T13:41:59;22.05;;;6.20;;
40993;SDS011;26722;43.212;27.932;2023-04-01T13:44:59;27.13;;;6.18;;
40993;SDS011;26722;43.212;27.932;2023-04-01T14:15:05;24.73;;;5.50;;
40993;SDS011;26722;43.212;27.932;2023-04-01T14:28:35;17.02;;;5.68;;
40993;SDS011;26722;43.212;27.932;2023-04-01T14:39:27;20.45;;;5.38;;
40993;SDS011;26722;43.212;27.932;2023-04-01T14:42:15;24.27;;;5.60;;
40993;SDS011;26722;43.212;27.932;2023-04-01T14:47:46;23.55;;;5.63;;
40993;SDS011;26722;43.212;27.932;2023-04-01T14:55:34;21.20;;;6.85;;
40993;SDS011;26722;43.212;27.932;2023-04-01T14:58:14;20.60;;;5.65;;
40993;SDS011;26722;43.212;27.932;2023-04-01T15:00:47;19.63;;;6.30;;
40993;SDS011;26722;43.212;27.932;2023-04-01T15:03:29;22.77;;;5.93;;
40993;SDS011;26722;43.212;27.932;2023-04-01T15:06:27;21.05;;;5.88;;
40993;SDS011;26722;43.212;27.932;2023-04-01T15:09:16;20.92;;;5.63;;
40993;SDS011;26722;43.212;27.932;2023-04-01T15:15:00;19.20;;;5.43;;
40993;SDS011;26722;43.212;27.932;2023-04-01T15:23:25;17.23;;;5.65;;
40993;SDS011;26722;43.212;27.932;2023-04-01T15:26:09;24.40;;;5.85;;
40993;SDS011;26722;43.212;27.932;2023-04-01T15:34:54;25.25;;;6.10;;
40993;SDS011;26722;43.212;27.932;2023-04-01T15:40:28;32.97;;;6.32;;
40993;SDS011;26722;43.212;27.932;2023-04-01T15:43:47;19.73;;;5.78;;
40993;SDS011;26722;43.212;27.932;2023-04-01T15:51:18;28.27;;;6.10;;
40993;SDS011;26722;43.212;27.932;2023-04-01T15:54:06;18.02;;;5.25;;
40993;SDS011;26722;43.212;27.932;2023-04-01T15:56:52;38.97;;;6.15;;
40993;SDS011;26722;43.212;27.932;2023-04-01T16:07:31;30.35;;;6.55;;
40993;SDS011;26722;43.212;27.932;2023-04-01T16:15:18;21.35;;;6.05;;
40993;SDS011;26722;43.212;27.932;2023-04-01T16:18:28;23.70;;;5.90;;
40993;SDS011;26722;43.212;27.932;2023-04-01T16:24:03;28.02;;;6.13;;
40993;SDS011;26722;43.212;27.932;2023-04-01T16:26:39;33.67;;;7.05;;
40993;SDS011;26722;43.212;27.932;2023-04-01T16:29:17;26.95;;;6.63;;
40993;SDS011;26722;43.212;27.932;2023-04-01T16:32:05;32.13;;;6.28;;
40993;SDS011;26722;43.212;27.932;2023-04-01T16:34:38;24.17;;;6.03;;
40993;SDS011;26722;43.212;27.932;2023-04-01T16:42:58;28.75;;;6.75;;
40993;SDS011;26722;43.212;27.932;2023-04-01T16:48:20;19.88;;;6.32;;
40993;SDS011;26722;43.212;27.932;2023-04-01T16:51:02;28.52;;;6.63;;
40993;SDS011;26722;43.212;27.932;2023-04-01T16:53:48;26.10;;;6.50;;
40993;SDS011;26722;43.212;27.932;2023-04-01T16:56:22;25.65;;;6.05;;
40993;SDS011;26722;43.212;27.932;2023-04-01T17:01:43;36.35;;;8.98;;
40993;SDS011;26722;43.212;27.932;2023-04-01T17:06:53;26.33;;;7.57;;
40993;SDS011;26722;43.212;27.932;2023-04-01T17:14:59;18.60;;;5.47;;
40993;SDS011;26722;43.212;27.932;2023-04-01T17:22:51;30.42;;;6.50;;
40993;SDS011;26722;43.212;27.932;2023-04-01T17:36:34;22.98;;;6.22;;
40993;SDS011;26722;43.212;27.932;2023-04-01T17:42:16;27.13;;;6.63;;
40993;SDS011;26722;43.212;27.932;2023-04-01T17:45:28;24.52;;;5.63;;
40993;SDS011;26722;43.212;27.932;2023-04-01T17:56:36;30.30;;;6.63;;
40993;SDS011;26722;43.212;27.932;2023-04-01T18:12:01;21.75;;;7.20;;
40993;SDS011;26722;43.212;27.932;2023-04-01T18:15:00;21.95;;;6.45;;
40993;SDS011;26722;43.212;27.932;2023-04-01T18:25:46;21.63;;;6.18;;
40993;SDS011;26722;43.212;27.932;2023-04-01T18:30:54;26.77;;;6.78;;
40993;SDS011;26722;43.212;27.932;2023-04-01T18:36:08;31.20;;;5.95;;
40993;SDS011;26722;43.212;27.932;2023-04-01T18:38:55;26.63;;;5.75;;
40993;SDS011;26722;43.212;27.932;2023-04-01T18:41:28;28.90;;;5.60;;
40993;SDS011;26722;43.212;27.932;2023-04-01T18:47:26;24.23;;;5.88;;
40993;SDS011;26722;43.212;27.932;2023-04-01T18:50:18;33.10;;;7.03;;
40993;SDS011;26722;43.212;27.932;2023-04-01T18:53:17;20.70;;;7.30;;
40993;SDS011;26722;43.212;27.932;2023-04-01T18:55:52;23.10;;;6.38;;
40993;SDS011;26722;43.212;27.932;2023-04-01T19:06:34;13.25;;;5.80;;
40993;SDS011;26722;43.212;27.932;2023-04-01T19:09:19;9.32;;;4.55;;
40993;SDS011;26722;43.212;27.932;2023-04-01T19:27:49;11.48;;;5.70;;
40993;SDS011;26722;43.212;27.932;2023-04-01T19:33:29;11.93;;;7.03;;
40993;SDS011;26722;43.212;27.932;2023-04-01T19:42:04;17.42;;;8.55;;
40993;SDS011;26722;43.212;27.932;2023-04-01T19:44:55;15.88;;;7.57;;
40993;SDS011;26722;43.212;27.932;2023-04-01T19:50:26;20.05;;;10.68;;
40993;SDS011;26722;43.212;27.932;2023-04-01T19:52:53;17.45;;;9.48;;
40993;SDS011;26722;43.212;27.932;2023-04-01T19:55:45;17.67;;;9.38;;
40993;SDS011;26722;43.212;27.932;2023-04-01T19:58:24;14.82;;;8.02;;
40993;SDS011;26722;43.212;27.932;2023-04-01T20:00:58;13.52;;;7.28;;
40993;SDS011;26722;43.212;27.932;2023-04-01T20:14:54;11.85;;;5.13;;
40993;SDS011;26722;43.212;27.932;2023-04-01T20:17:38;13.90;;;4.22;;
40993;SDS011;26722;43.212;27.932;2023-04-01T20:22:38;7.90;;;4.15;;
40993;SDS011;26722;43.212;27.932;2023-04-01T20:25:26;6.15;;;3.80;;
40993;SDS011;26722;43.212;27.932;2023-04-01T20:30:51;7.40;;;3.92;;
40993;SDS011;26722;43.212;27.932;2023-04-01T20:46:48;10.77;;;4.57;;
40993;SDS011;26722;43.212;27.932;2023-04-01T20:54:41;10.38;;;5.07;;
40993;SDS011;26722;43.212;27.932;2023-04-01T21:03:23;8.35;;;3.90;;
40993;SDS011;26722;43.212;27.932;2023-04-01T21:35:14;26.13;;;14.80;;
40993;SDS011;26722;43.212;27.932;2023-04-01T21:40:41;26.20;;;14.48;;
40993;SDS011;26722;43.212;27.932;2023-04-01T21:58:01;20.90;;;12.18;;
40993;SDS011;26722;43.212;27.932;2023-04-01T22:03:59;24.23;;;12.43;;
40993;SDS011;26722;43.212;27.932;2023-04-01T22:17:42;19.83;;;11.93;;
40993;SDS011;26722;43.212;27.932;2023-04-01T22:23:01;22.67;;;13.63;;
40993;SDS011;26722;43.212;27.932;2023-04-01T22:43:18;21.95;;;13.45;;
40993;SDS011;26722;43.212;27.932;2023-04-01T22:53:22;27.17;;;14.85;;
40993;SDS011;26722;43.212;27.932;2023-04-01T22:55:59;26.92;;;14.82;;
40993;SDS011;26722;43.212;27.932;2023-04-01T23:01:34;21.08;;;9.95;;
40993;SDS011;26722;43.212;27.932;2023-04-01T23:04:05;22.33;;;13.70;;
40993;SDS011;26722;43.212;27.932;2023-04-01T23:06:42;28.67;;;14.38;;
40993;SDS011;26722;43.212;27.932;2023-04-01T23:09:23;22.35;;;11.85;;
40993;SDS011;26722;43.212;27.932;2023-04-01T23:14:30;16.88;;;9.73;;
40993;SDS011;26722;43.212;27.932;2023-04-01T23:20:15;13.82;;;7.57;;
40993;SDS011;26722;43.212;27.932;2023-04-01T23:25:30;9.00;;;4.85;;
40993;SDS011;26722;43.212;27.932;2023-04-01T23:35:46;5.00;;;3.10;;
40993;SDS011;26722;43.212;27.932;2023-04-01T23:38:30;3.55;;;1.90;;
40993;SDS011;26722;43.212;27.932;2023-04-01T23:40:58;8.60;;;2.42;;
40993;SDS011;26722;43.212;27.932;2023-04-01T23:43:26;3.05;;;1.90;;
40993;SDS011;26722;43.212;27.932;2023-04-01T23:45:58;2.28;;;1.40;;
40993;SDS011;26722;43.212;27.932;2023-04-01T23:48:29;1.77;;;1.55;;
40993;SDS011;26722;43.212;27.932;2023-04-01T23:50:57;1.77;;;0.93;;
40993;SDS011;26722;43.212;27.932;2023-04-01T23:53:24;3.60;;;0.90;;
40993;SDS011;26722;43.212;27.932;2023-04-01T23:55:54;1.95;;;1.00;;
40993;SDS011;26722;43.212;27.932;2023-04-01T23:58:27;1.15;;;0.80;;
